sensor_id;sensor_type;location;lat;lon;timestamp;pressure;altitude;pressure_sealevel;temperature;humidity
74103;BME280;62853;46.166;3.640;2022-12-07T00:01:13;101706.91;;;2.79;100.00
74103;BME280;62853;46.166;3.640;2022-12-07T00:03:40;101715.63;;;2.77;100.00
74103;BME280;62853;46.166;3.640;2022-12-07T00:06:07;101721.78;;;2.68;100.00
74103;BME280;62853;46.166;3.640;2022-12-07T00:08:33;101720.13;;;2.56;100.00
74103;BME280;62853;46.166;3.640;2022-12-07T00:11:03;101713.22;;;2.49;100.00
74103;BME280;62853;46.166;3.640;2022-12-07T00:13:29;101716.75;;;2.42;100.00
74103;BME280;62853;46.166;3.640;2022-12-07T00:15:55;101712.47;;;2.36;100.00
74103;BME280;62853;46.166;3.640;2022-12-07T00:18:20;101699.50;;;2.30;100.00
74103;BME280;62853;46.166;3.640;2022-12-07T00:20:45;101704.72;;;2.26;100.00
74103;BME280;62853;46.166;3.640;2022-12-07T00:23:11;101698.69;;;2.17;100.00
74103;BME280;62853;46.166;3.640;2022-12-07T00:25:36;101710.00;;;2.12;100.00
74103;BME280;62853;46.166;3.640;2022-12-07T00:28:01;101713.53;;;2.04;100.00
74103;BME280;62853;46.166;3.640;2022-12-07T00:30:27;101709.19;;;1.99;100.00
74103;BME280;62853;46.166;3.640;2022-12-07T00:32:52;101703.16;;;1.92;100.00
74103;BME280;62853;46.166;3.640;2022-12-07T00:35:17;101699.72;;;1.85;100.00
74103;BME280;62853;46.166;3.640;2022-12-07T00:37:43;101698.94;;;1.74;100.00
74103;BME280;62853;46.166;3.640;2022-12-07T00:40:08;101692.91;;;1.63;100.00
74103;BME280;62853;46.166;3.640;2022-12-07T00:42:34;101689.47;;;1.61;100.00
74103;BME280;62853;46.166;3.640;2022-12-07T00:44:59;101696.41;;;1.59;100.00
74103;BME280;62853;46.166;3.640;2022-12-07T00:47:25;101697.28;;;1.58;100.00
74103;BME280;62853;46.166;3.640;2022-12-07T00:49:50;101689.47;;;1.64;100.00
74103;BME280;62853;46.166;3.640;2022-12-07T00:52:15;101682.47;;;1.75;100.00
74103;BME280;62853;46.166;3.640;2022-12-07T00:54:41;101685.06;;;1.78;100.00
74103;BME280;62853;46.166;3.640;2022-12-07T00:57:06;101685.94;;;1.79;100.00
74103;BME280;62853;46.166;3.640;2022-12-07T00:59:31;101686.78;;;1.84;100.00
74103;BME280;62853;46.166;3.640;2022-12-07T01:01:57;101683.28;;;1.88;100.00
74103;BME280;62853;46.166;3.640;2022-12-07T01:04:22;101677.22;;;1.89;100.00
74103;BME280;62853;46.166;3.640;2022-12-07T01:06:48;101674.59;;;1.95;100.00
74103;BME280;62853;46.166;3.640;2022-12-07T01:09:13;101678.06;;;1.94;100.00
74103;BME280;62853;46.166;3.640;2022-12-07T01:11:39;101690.16;;;1.94;100.00
74103;BME280;62853;46.166;3.640;2022-12-07T01:14:04;101691.91;;;1.96;100.00
74103;BME280;62853;46.166;3.640;2022-12-07T01:16:31;101683.25;;;1.97;100.00
74103;BME280;62853;46.166;3.640;2022-12-07T01:18:58;101691.91;;;1.98;100.00
74103;BME280;62853;46.166;3.640;2022-12-07T01:21:31;101683.28;;;1.93;100.00
74103;BME280;62853;46.166;3.640;2022-12-07T01:24:00;101685.91;;;1.83;100.00
74103;BME280;62853;46.166;3.640;2022-12-07T01:26:26;101688.56;;;1.71;100.00
74103;BME280;62853;46.166;3.640;2022-12-07T01:28:52;101682.53;;;1.60;100.00
74103;BME280;62853;46.166;3.640;2022-12-07T01:31:24;101687.75;;;1.57;100.00
74103;BME280;62853;46.166;3.640;2022-12-07T01:33:52;101687.78;;;1.44;100.00
74103;BME280;62853;46.166;3.640;2022-12-07T01:36:23;101684.34;;;1.35;100.00
74103;BME280;62853;46.166;3.640;2022-12-07T01:38:51;101684.41;;;1.27;100.00
74103;BME280;62853;46.166;3.640;2022-12-07T01:41:18;101688.69;;;1.31;100.00
74103;BME280;62853;46.166;3.640;2022-12-07T01:44:10;101692.09;;;1.52;100.00
74103;BME280;62853;46.166;3.640;2022-12-07T01:46:37;101696.38;;;1.65;100.00
74103;BME280;62853;46.166;3.640;2022-12-07T01:49:04;101692.84;;;1.78;100.00
74103;BME280;62853;46.166;3.640;2022-12-07T01:51:31;101687.63;;;1.89;100.00
74103;BME280;62853;46.166;3.640;2022-12-07T01:53:56;101685.78;;;2.05;100.00
74103;BME280;62853;46.166;3.640;2022-12-07T01:56:25;101682.25;;;2.17;100.00
74103;BME280;62853;46.166;3.640;2022-12-07T01:58:51;101681.31;;;2.26;100.00
74103;BME280;62853;46.166;3.640;2022-12-07T02:01:17;101681.31;;;2.29;100.00
74103;BME280;62853;46.166;3.640;2022-12-07T02:03:44;101684.75;;;2.34;100.00
74103;BME280;62853;46.166;3.640;2022-12-07T02:06:12;101702.00;;;2.41;100.00
74103;BME280;62853;46.166;3.640;2022-12-07T02:08:40;101699.41;;;2.42;100.00
74103;BME280;62853;46.166;3.640;2022-12-07T02:11:07;101686.38;;;2.46;100.00
74103;BME280;62853;46.166;3.640;2022-12-07T02:13:35;101686.34;;;2.53;100.00
74103;BME280;62853;46.166;3.640;2022-12-07T02:24:54;101670.63;;;2.66;100.00
74103;BME280;62853;46.166;3.640;2022-12-07T02:27:46;101660.25;;;2.61;100.00
74103;BME280;62853;46.166;3.640;2022-12-07T02:30:15;101675.81;;;2.66;100.00
74103;BME280;62853;46.166;3.640;2022-12-07T02:32:57;101678.41;;;2.70;100.00
74103;BME280;62853;46.166;3.640;2022-12-07T02:35:30;101681.84;;;2.72;100.00
74103;BME280;62853;46.166;3.640;2022-12-07T02:38:28;101687.06;;;2.71;100.00
74103;BME280;62853;46.166;3.640;2022-12-07T02:41:16;101687.16;;;2.58;100.00
74103;BME280;62853;46.166;3.640;2022-12-07T02:43:52;101676.91;;;2.41;100.00
74103;BME280;62853;46.166;3.640;2022-12-07T02:46:29;101676.09;;;2.29;100.00
74103;BME280;62853;46.166;3.640;2022-12-07T02:48:56;101670.16;;;2.14;100.00
74103;BME280;62853;46.166;3.640;2022-12-07T02:51:24;101671.06;;;2.05;100.00
74103;BME280;62853;46.166;3.640;2022-12-07T02:53:50;101671.13;;;1.92;100.00
74103;BME280;62853;46.166;3.640;2022-12-07T02:59:17;101677.31;;;1.69;100.00
74103;BME280;62853;46.166;3.640;2022-12-07T03:10:22;101682.44;;;1.88;100.00
74103;BME280;62853;46.166;3.640;2022-12-07T03:15:37;101677.16;;;2.01;100.00
74103;BME280;62853;46.166;3.640;2022-12-07T03:18:05;101680.59;;;2.05;100.00
74103;BME280;62853;46.166;3.640;2022-12-07T03:20:34;101680.59;;;2.03;100.00
74103;BME280;62853;46.166;3.640;2022-12-07T03:23:04;101675.41;;;2.05;100.00
74103;BME280;62853;46.166;3.640;2022-12-07T03:25:32;101681.44;;;2.05;100.00
74103;BME280;62853;46.166;3.640;2022-12-07T03:28:05;101681.50;;;1.98;100.00
74103;BME280;62853;46.166;3.640;2022-12-07T03:30:43;101681.53;;;1.89;100.00
74103;BME280;62853;46.166;3.640;2022-12-07T03:33:20;101671.22;;;1.82;100.00
74103;BME280;62853;46.166;3.640;2022-12-07T03:36:19;101669.44;;;1.88;100.00
74103;BME280;62853;46.166;3.640;2022-12-07T03:39:26;101666.88;;;1.83;100.00
74103;BME280;62853;46.166;3.640;2022-12-07T03:41:54;101666.88;;;1.80;100.00
74103;BME280;62853;46.166;3.640;2022-12-07T03:44:22;101665.19;;;1.74;100.00
74103;BME280;62853;46.166;3.640;2022-12-07T03:47:02;101660.00;;;1.70;100.00
74103;BME280;62853;46.166;3.640;2022-12-07T03:54:34;101668.63;;;1.78;100.00
74103;BME280;62853;46.166;3.640;2022-12-07T03:57:02;101673.75;;;1.89;100.00
74103;BME280;62853;46.166;3.640;2022-12-07T03:59:29;101684.94;;;2.01;100.00
74103;BME280;62853;46.166;3.640;2022-12-07T04:01:57;101679.66;;;2.14;100.00
74103;BME280;62853;46.166;3.640;2022-12-07T04:04:26;101672.69;;;2.23;100.00
74103;BME280;62853;46.166;3.640;2022-12-07T04:06:52;101665.72;;;2.27;100.00
74103;BME280;62853;46.166;3.640;2022-12-07T04:09:17;101666.53;;;2.34;100.00
74103;BME280;62853;46.166;3.640;2022-12-07T04:11:43;101676.00;;;2.42;100.00
74103;BME280;62853;46.166;3.640;2022-12-07T04:14:08;101672.56;;;2.40;100.00
74103;BME280;62853;46.166;3.640;2022-12-07T04:16:47;101666.53;;;2.34;100.00
74103;BME280;62853;46.166;3.640;2022-12-07T04:19:13;101664.84;;;2.33;100.00
74103;BME280;62853;46.166;3.640;2022-12-07T04:21:39;101672.63;;;2.33;100.00
74103;BME280;62853;46.166;3.640;2022-12-07T04:24:04;101668.28;;;2.35;100.00
74103;BME280;62853;46.166;3.640;2022-12-07T04:26:30;101658.69;;;2.43;100.00
74103;BME280;62853;46.166;3.640;2022-12-07T04:28:55;101664.66;;;2.51;100.00
74103;BME280;62853;46.166;3.640;2022-12-07T04:31:20;101664.63;;;2.56;100.00
74103;BME280;62853;46.166;3.640;2022-12-07T04:33:46;101653.31;;;2.63;100.00
74103;BME280;62853;46.166;3.640;2022-12-07T04:36:11;101653.25;;;2.69;100.00
74103;BME280;62853;46.166;3.640;2022-12-07T04:38:36;101642.84;;;2.71;100.00
74103;BME280;62853;46.166;3.640;2022-12-07T04:41:06;101654.06;;;2.74;100.00
74103;BME280;62853;46.166;3.640;2022-12-07T04:43:32;101651.47;;;2.73;100.00
74103;BME280;62853;46.166;3.640;2022-12-07T04:45:58;101641.97;;;2.72;100.00
74103;BME280;62853;46.166;3.640;2022-12-07T04:48:23;101643.69;;;2.71;100.00
74103;BME280;62853;46.166;3.640;2022-12-07T04:50:49;101643.66;;;2.74;100.00
74103;BME280;62853;46.166;3.640;2022-12-07T04:53:17;101641.03;;;2.77;100.00
74103;BME280;62853;46.166;3.640;2022-12-07T04:55:44;101639.25;;;2.81;100.00
74103;BME280;62853;46.166;3.640;2022-12-07T04:58:09;101651.31;;;2.91;100.00
74103;BME280;62853;46.166;3.640;2022-12-07T05:00:35;101646.06;;;2.96;100.00
74103;BME280;62853;46.166;3.640;2022-12-07T05:03:00;101646.91;;;2.98;100.00
74103;BME280;62853;46.166;3.640;2022-12-07T05:05:25;101645.09;;;3.06;100.00
74103;BME280;62853;46.166;3.640;2022-12-07T05:07:51;101644.22;;;3.06;100.00
74103;BME280;62853;46.166;3.640;2022-12-07T05:10:16;101646.81;;;3.07;100.00
74103;BME280;62853;46.166;3.640;2022-12-07T05:12:42;101651.13;;;3.10;100.00
74103;BME280;62853;46.166;3.640;2022-12-07T05:15:08;101648.50;;;3.13;100.00
74103;BME280;62853;46.166;3.640;2022-12-07T05:17:33;101644.19;;;3.10;100.00
74103;BME280;62853;46.166;3.640;2022-12-07T05:19:59;101644.22;;;3.09;100.00
74103;BME280;62853;46.166;3.640;2022-12-07T05:22:24;101646.00;;;3.04;100.00
74103;BME280;62853;46.166;3.640;2022-12-07T05:24:53;101642.53;;;3.02;100.00
74103;BME280;62853;46.166;3.640;2022-12-07T05:27:19;101638.19;;;3.02;100.00
74103;BME280;62853;46.166;3.640;2022-12-07T05:29:44;101635.53;;;3.07;100.00
74103;BME280;62853;46.166;3.640;2022-12-07T05:32:10;101635.53;;;3.07;100.00
74103;BME280;62853;46.166;3.640;2022-12-07T05:34:35;101639.91;;;3.05;100.00
74103;BME280;62853;46.166;3.640;2022-12-07T05:37:01;101633.84;;;3.03;100.00
74103;BME280;62853;46.166;3.640;2022-12-07T05:39:26;101633.91;;;2.96;100.00
74103;BME280;62853;46.166;3.640;2022-12-07T05:41:51;101634.00;;;2.90;100.00
74103;BME280;62853;46.166;3.640;2022-12-07T05:44:35;101634.97;;;2.78;100.00
74103;BME280;62853;46.166;3.640;2022-12-07T05:47:00;101630.78;;;2.64;100.00
74103;BME280;62853;46.166;3.640;2022-12-07T05:49:26;101634.34;;;2.53;100.00
74103;BME280;62853;46.166;3.640;2022-12-07T05:51:51;101644.81;;;2.41;100.00
74103;BME280;62853;46.166;3.640;2022-12-07T05:54:17;101620.69;;;2.23;100.00
74103;BME280;62853;46.166;3.640;2022-12-07T05:56:42;101620.81;;;2.08;100.00
74103;BME280;62853;46.166;3.640;2022-12-07T05:59:08;101623.53;;;1.93;100.00
74103;BME280;62853;46.166;3.640;2022-12-07T06:04:23;101628.81;;;1.77;100.00
74103;BME280;62853;46.166;3.640;2022-12-07T06:06:49;101633.16;;;1.72;100.00
74103;BME280;62853;46.166;3.640;2022-12-07T06:09:14;101631.41;;;1.79;100.00
74103;BME280;62853;46.166;3.640;2022-12-07T06:11:40;101635.69;;;1.83;100.00
74103;BME280;62853;46.166;3.640;2022-12-07T06:14:24;101637.44;;;1.81;100.00
74103;BME280;62853;46.166;3.640;2022-12-07T06:16:50;101634.84;;;1.79;100.00
74103;BME280;62853;46.166;3.640;2022-12-07T06:19:15;101642.69;;;1.68;100.00
74103;BME280;62853;46.166;3.640;2022-12-07T06:21:41;101640.13;;;1.67;100.00
74103;BME280;62853;46.166;3.640;2022-12-07T06:24:07;101645.22;;;1.82;100.00
74103;BME280;62853;46.166;3.640;2022-12-07T06:26:32;101636.53;;;1.86;100.00
74103;BME280;62853;46.166;3.640;2022-12-07T06:28:58;101638.28;;;1.86;100.00
74103;BME280;62853;46.166;3.640;2022-12-07T06:31:23;101638.31;;;1.78;100.00
74103;BME280;62853;46.166;3.640;2022-12-07T06:33:49;101642.66;;;1.72;100.00
74103;BME280;62853;46.166;3.640;2022-12-07T06:36:14;101641.81;;;1.74;100.00
74103;BME280;62853;46.166;3.640;2022-12-07T06:38:40;101643.56;;;1.69;100.00
74103;BME280;62853;46.166;3.640;2022-12-07T06:41:05;101651.38;;;1.66;100.00
74103;BME280;62853;46.166;3.640;2022-12-07T06:43:32;101650.53;;;1.59;100.00
74103;BME280;62853;46.166;3.640;2022-12-07T06:45:57;101644.50;;;1.57;100.00
74103;BME280;62853;46.166;3.640;2022-12-07T06:48:22;101641.91;;;1.56;100.00
74103;BME280;62853;46.166;3.640;2022-12-07T06:50:48;101643.59;;;1.60;100.00
74103;BME280;62853;46.166;3.640;2022-12-07T06:53:13;101647.00;;;1.71;100.00
74103;BME280;62853;46.166;3.640;2022-12-07T06:55:39;101649.59;;;1.79;100.00
74103;BME280;62853;46.166;3.640;2022-12-07T06:58:04;101650.44;;;1.79;100.00
74103;BME280;62853;46.166;3.640;2022-12-07T07:00:30;101640.91;;;1.78;100.00
74103;BME280;62853;46.166;3.640;2022-12-07T07:02:55;101650.44;;;1.82;100.00
74103;BME280;62853;46.166;3.640;2022-12-07T07:05:21;101646.94;;;1.80;100.00
74103;BME280;62853;46.166;3.640;2022-12-07T07:07:48;101648.69;;;1.81;100.00
74103;BME280;62853;46.166;3.640;2022-12-07T07:10:13;101646.09;;;1.78;100.00
74103;BME280;62853;46.166;3.640;2022-12-07T07:12:39;101650.41;;;1.84;100.00
74103;BME280;62853;46.166;3.640;2022-12-07T07:15:04;101649.53;;;1.86;100.00
74103;BME280;62853;46.166;3.640;2022-12-07T07:17:30;101648.66;;;1.89;100.00
74103;BME280;62853;46.166;3.640;2022-12-07T07:19:55;101646.84;;;1.99;100.00
74103;BME280;62853;46.166;3.640;2022-12-07T07:22:21;101643.38;;;1.98;100.00
74103;BME280;62853;46.166;3.640;2022-12-07T07:24:46;101645.16;;;1.95;100.00
74103;BME280;62853;46.166;3.640;2022-12-07T07:27:11;101642.56;;;1.90;100.00
74103;BME280;62853;46.166;3.640;2022-12-07T07:29:37;101637.44;;;1.84;100.00
74103;BME280;62853;46.166;3.640;2022-12-07T07:32:02;101643.47;;;1.84;100.00
74103;BME280;62853;46.166;3.640;2022-12-07T07:34:27;101650.38;;;1.85;100.00
74103;BME280;62853;46.166;3.640;2022-12-07T07:36:53;101642.56;;;1.90;100.00
74103;BME280;62853;46.166;3.640;2022-12-07T07:39:18;101646.91;;;1.90;100.00
74103;BME280;62853;46.166;3.640;2022-12-07T07:41:43;101648.63;;;1.92;100.00
74103;BME280;62853;46.166;3.640;2022-12-07T07:44:09;101653.84;;;1.89;100.00
74103;BME280;62853;46.166;3.640;2022-12-07T07:46:35;101651.28;;;1.83;100.00
74103;BME280;62853;46.166;3.640;2022-12-07T07:49:00;101653.91;;;1.78;100.00
74103;BME280;62853;46.166;3.640;2022-12-07T07:51:26;101659.06;;;1.86;100.00
74103;BME280;62853;46.166;3.640;2022-12-07T07:53:51;101659.81;;;2.00;100.00
74103;BME280;62853;46.166;3.640;2022-12-07T07:56:16;101658.06;;;2.07;100.00
74103;BME280;62853;46.166;3.640;2022-12-07T07:58:42;101663.19;;;2.19;100.00
74103;BME280;62853;46.166;3.640;2022-12-07T08:01:07;101654.53;;;2.17;100.00
74103;BME280;62853;46.166;3.640;2022-12-07T08:03:33;101659.69;;;2.22;100.00
74103;BME280;62853;46.166;3.640;2022-12-07T08:05:59;101661.41;;;2.26;100.00
74103;BME280;62853;46.166;3.640;2022-12-07T08:08:24;101660.50;;;2.32;100.00
74103;BME280;62853;46.166;3.640;2022-12-07T08:10:49;101668.22;;;2.39;100.00
74103;BME280;62853;46.166;3.640;2022-12-07T08:13:16;101657.81;;;2.41;100.00
74103;BME280;62853;46.166;3.640;2022-12-07T08:15:47;101666.50;;;2.41;100.00
74103;BME280;62853;46.166;3.640;2022-12-07T08:18:14;101664.78;;;2.36;100.00
74103;BME280;62853;46.166;3.640;2022-12-07T08:20:40;101674.34;;;2.34;100.00
74103;BME280;62853;46.166;3.640;2022-12-07T08:23:06;101672.56;;;2.39;100.00
74103;BME280;62853;46.166;3.640;2022-12-07T08:25:32;101670.78;;;2.46;100.00
74103;BME280;62853;46.166;3.640;2022-12-07T08:27:58;101665.59;;;2.44;100.00
74103;BME280;62853;46.166;3.640;2022-12-07T08:30:24;101670.66;;;2.63;100.00
74103;BME280;62853;46.166;3.640;2022-12-07T08:32:50;101678.47;;;2.61;100.00
74103;BME280;62853;46.166;3.640;2022-12-07T08:35:15;101670.66;;;2.63;100.00
74103;BME280;62853;46.166;3.640;2022-12-07T08:37:41;101675.81;;;2.69;100.00
74103;BME280;62853;46.166;3.640;2022-12-07T08:40:08;101685.25;;;2.81;100.00
74103;BME280;62853;46.166;3.640;2022-12-07T08:42:34;101681.78;;;2.80;100.00
74103;BME280;62853;46.166;3.640;2022-12-07T08:45:07;101680.06;;;2.76;100.00
74103;BME280;62853;46.166;3.640;2022-12-07T08:47:38;101684.44;;;2.74;100.00
74103;BME280;62853;46.166;3.640;2022-12-07T08:50:07;101678.25;;;2.86;100.00
74103;BME280;62853;46.166;3.640;2022-12-07T08:52:34;101676.34;;;3.02;100.00
74103;BME280;62853;46.166;3.640;2022-12-07T08:55:01;101665.03;;;3.07;100.00
74103;BME280;62853;46.166;3.640;2022-12-07T08:57:28;101671.84;;;3.21;100.00
74103;BME280;62853;46.166;3.640;2022-12-07T08:59:54;101665.72;;;3.23;100.00
74103;BME280;62853;46.166;3.640;2022-12-07T09:02:19;101671.69;;;3.34;100.00
74103;BME280;62853;46.166;3.640;2022-12-07T09:04:44;101667.28;;;3.41;100.00
74103;BME280;62853;46.166;3.640;2022-12-07T09:07:10;101676.78;;;3.44;100.00
74103;BME280;62853;46.166;3.640;2022-12-07T09:09:35;101674.19;;;3.42;100.00
74103;BME280;62853;46.166;3.640;2022-12-07T09:12:01;101671.50;;;3.48;100.00
74103;BME280;62853;46.166;3.640;2022-12-07T09:14:26;101668.72;;;3.62;100.00
74103;BME280;62853;46.166;3.640;2022-12-07T09:16:51;101670.34;;;3.72;100.00
74103;BME280;62853;46.166;3.640;2022-12-07T09:19:17;101668.50;;;3.81;100.00
74103;BME280;62853;46.166;3.640;2022-12-07T09:21:42;101671.13;;;3.78;100.00
74103;BME280;62853;46.166;3.640;2022-12-07T09:24:08;101666.88;;;3.73;100.00
74103;BME280;62853;46.166;3.640;2022-12-07T09:26:34;101667.66;;;3.80;100.00
74103;BME280;62853;46.166;3.640;2022-12-07T09:29:02;101671.88;;;3.89;100.00
74103;BME280;62853;46.166;3.640;2022-12-07T09:31:27;101662.25;;;3.94;100.00
74103;BME280;62853;46.166;3.640;2022-12-07T09:34:00;101670.78;;;4.05;100.00
74103;BME280;62853;46.166;3.640;2022-12-07T09:36:26;101667.22;;;4.09;100.00
74103;BME280;62853;46.166;3.640;2022-12-07T09:38:51;101670.75;;;4.08;100.00
74103;BME280;62853;46.166;3.640;2022-12-07T09:41:17;101661.22;;;4.04;100.00
74103;BME280;62853;46.166;3.640;2022-12-07T09:43:43;101666.47;;;4.01;100.00
74103;BME280;62853;46.166;3.640;2022-12-07T09:46:13;101664.00;;;3.94;100.00
74103;BME280;62853;46.166;3.640;2022-12-07T09:48:40;101667.56;;;3.86;100.00
74103;BME280;62853;46.166;3.640;2022-12-07T09:51:25;101673.06;;;3.63;100.00
74103;BME280;62853;46.166;3.640;2022-12-07T09:53:51;101679.16;;;3.62;100.00
74103;BME280;62853;46.166;3.640;2022-12-07T09:56:17;101675.81;;;3.52;100.00
74103;BME280;62853;46.166;3.640;2022-12-07T09:58:44;101675.72;;;3.59;100.00
74103;BME280;62853;46.166;3.640;2022-12-07T10:01:18;101678.38;;;3.54;100.00
74103;BME280;62853;46.166;3.640;2022-12-07T10:03:50;101676.47;;;3.68;100.00
74103;BME280;62853;46.166;3.640;2022-12-07T10:06:17;101660.81;;;3.73;100.00
74103;BME280;62853;46.166;3.640;2022-12-07T10:08:42;101668.59;;;3.76;100.00
74103;BME280;62853;46.166;3.640;2022-12-07T10:11:09;101667.66;;;3.79;100.00
74103;BME280;62853;46.166;3.640;2022-12-07T10:13:38;101661.63;;;3.77;100.00
74103;BME280;62853;46.166;3.640;2022-12-07T10:16:05;101662.94;;;4.07;100.00
74103;BME280;62853;46.166;3.640;2022-12-07T10:18:32;101653.25;;;4.17;100.00
74103;BME280;62853;46.166;3.640;2022-12-07T10:23:28;101640.69;;;4.42;100.00
74103;BME280;62853;46.166;3.640;2022-12-07T10:25:53;101647.44;;;4.54;100.00
74103;BME280;62853;46.166;3.640;2022-12-07T10:28:20;101642.31;;;4.47;100.00
74103;BME280;62853;46.166;3.640;2022-12-07T10:30:55;101636.16;;;4.52;100.00
74103;BME280;62853;46.166;3.640;2022-12-07T10:33:35;101630.63;;;4.69;100.00
74103;BME280;62853;46.166;3.640;2022-12-07T10:36:19;101629.47;;;4.87;100.00
74103;BME280;62853;46.166;3.640;2022-12-07T10:39:09;101621.41;;;4.97;100.00
74103;BME280;62853;46.166;3.640;2022-12-07T10:41:35;101627.72;;;4.85;100.00
74103;BME280;62853;46.166;3.640;2022-12-07T10:44:21;101620.94;;;4.77;100.00
74103;BME280;62853;46.166;3.640;2022-12-07T10:47:05;101617.50;;;4.73;100.00
74103;BME280;62853;46.166;3.640;2022-12-07T10:55:23;101615.97;;;4.63;100.00
74103;BME280;62853;46.166;3.640;2022-12-07T10:58:16;101620.47;;;4.53;100.00
74103;BME280;62853;46.166;3.640;2022-12-07T11:03:41;101605.84;;;4.44;100.00
74103;BME280;62853;46.166;3.640;2022-12-07T11:17:51;101589.59;;;4.78;100.00
74103;BME280;62853;46.166;3.640;2022-12-07T11:20:34;101589.13;;;5.03;100.00
74103;BME280;62853;46.166;3.640;2022-12-07T11:26:10;101583.94;;;5.83;100.00
74103;BME280;62853;46.166;3.640;2022-12-07T11:29:02;101568.78;;;5.99;100.00
74103;BME280;62853;46.166;3.640;2022-12-07T11:34:36;101569.44;;;6.43;100.00
74103;BME280;62853;46.166;3.640;2022-12-07T11:37:12;101562.50;;;6.75;100.00
74103;BME280;62853;46.166;3.640;2022-12-07T11:39:46;101561.47;;;6.80;100.00
74103;BME280;62853;46.166;3.640;2022-12-07T11:42:21;101551.03;;;6.79;100.00
74103;BME280;62853;46.166;3.640;2022-12-07T11:45:19;101551.94;;;6.78;100.00
74103;BME280;62853;46.166;3.640;2022-12-07T11:48:01;101553.56;;;6.82;100.00
74103;BME280;62853;46.166;3.640;2022-12-07T11:53:14;101548.47;;;6.77;100.00
74103;BME280;62853;46.166;3.640;2022-12-07T12:06:39;101540.84;;;6.99;100.00
74103;BME280;62853;46.166;3.640;2022-12-07T12:09:28;101545.31;;;6.96;100.00
74103;BME280;62853;46.166;3.640;2022-12-07T12:22:44;101550.59;;;6.63;100.00
74103;BME280;62853;46.166;3.640;2022-12-07T12:25:52;101538.53;;;6.57;100.00
74103;BME280;62853;46.166;3.640;2022-12-07T12:33:34;101528.59;;;6.70;100.00
74103;BME280;62853;46.166;3.640;2022-12-07T12:47:43;101506.63;;;6.10;100.00
74103;BME280;62853;46.166;3.640;2022-12-07T12:50:17;101498.69;;;6.13;100.00
74103;BME280;62853;46.166;3.640;2022-12-07T12:57:34;101486.56;;;6.43;100.00
74103;BME280;62853;46.166;3.640;2022-12-07T13:00:15;101489.97;;;6.47;100.00
74103;BME280;62853;46.166;3.640;2022-12-07T13:02:54;101489.22;;;6.42;100.00
74103;BME280;62853;46.166;3.640;2022-12-07T13:05:27;101477.13;;;6.38;100.00
74103;BME280;62853;46.166;3.640;2022-12-07T13:08:00;101488.34;;;6.43;100.00
74103;BME280;62853;46.166;3.640;2022-12-07T13:15:52;101480.88;;;6.60;100.00
74103;BME280;62853;46.166;3.640;2022-12-07T13:24:17;101459.59;;;6.71;100.00
74103;BME280;62853;46.166;3.640;2022-12-07T13:29:18;101464.34;;;6.58;100.00
74103;BME280;62853;46.166;3.640;2022-12-07T13:31:53;101457.50;;;6.52;100.00
74103;BME280;62853;46.166;3.640;2022-12-07T13:34:35;101459.59;;;6.41;100.00
74103;BME280;62853;46.166;3.640;2022-12-07T13:37:12;101458.34;;;6.22;100.00
74103;BME280;62853;46.166;3.640;2022-12-07T13:39:55;101454.78;;;5.90;100.00
74103;BME280;62853;46.166;3.640;2022-12-07T13:42:29;101453.69;;;5.64;100.00
74103;BME280;62853;46.166;3.640;2022-12-07T13:44:56;101448.06;;;5.45;100.00
74103;BME280;62853;46.166;3.640;2022-12-07T13:47:36;101452.06;;;5.21;100.00
74103;BME280;62853;46.166;3.640;2022-12-07T13:50:23;101455.94;;;5.05;100.00
74103;BME280;62853;46.166;3.640;2022-12-07T13:52:49;101449.19;;;4.96;100.00
74103;BME280;62853;46.166;3.640;2022-12-07T13:55:16;101454.53;;;4.90;100.00
74103;BME280;62853;46.166;3.640;2022-12-07T13:57:51;101451.81;;;4.94;100.00
74103;BME280;62853;46.166;3.640;2022-12-07T14:00:19;101450.94;;;4.94;100.00
74103;BME280;62853;46.166;3.640;2022-12-07T14:02:56;101455.94;;;5.05;100.00
74103;BME280;62853;46.166;3.640;2022-12-07T14:05:33;101440.66;;;5.27;100.00
74103;BME280;62853;46.166;3.640;2022-12-07T14:08:20;101446.25;;;5.47;100.00
74103;BME280;62853;46.166;3.640;2022-12-07T14:13:34;101434.28;;;5.74;100.00
74103;BME280;62853;46.166;3.640;2022-12-07T14:16:14;101424.88;;;5.67;100.00
74103;BME280;62853;46.166;3.640;2022-12-07T14:18:43;101428.44;;;5.63;100.00
74103;BME280;62853;46.166;3.640;2022-12-07T14:23:34;101417.28;;;5.56;100.00
74103;BME280;62853;46.166;3.640;2022-12-07T14:26:18;101419.06;;;5.56;100.00
74103;BME280;62853;46.166;3.640;2022-12-07T14:28:44;101424.84;;;5.69;100.00
74103;BME280;62853;46.166;3.640;2022-12-07T14:31:18;101406.25;;;5.80;100.00
74103;BME280;62853;46.166;3.640;2022-12-07T14:33:45;101412.47;;;5.75;100.00
74103;BME280;62853;46.166;3.640;2022-12-07T14:36:11;101407.25;;;5.75;100.00
74103;BME280;62853;46.166;3.640;2022-12-07T14:38:37;101407.34;;;5.71;100.00
74103;BME280;62853;46.166;3.640;2022-12-07T14:41:04;101404.16;;;5.59;100.00
74103;BME280;62853;46.166;3.640;2022-12-07T14:43:50;101399.97;;;5.52;100.00
74103;BME280;62853;46.166;3.640;2022-12-07T14:46:15;101395.81;;;5.45;100.00
74103;BME280;62853;46.166;3.640;2022-12-07T14:48:41;101390.94;;;5.31;100.00
74103;BME280;62853;46.166;3.640;2022-12-07T14:51:08;101394.88;;;5.10;100.00
74103;BME280;62853;46.166;3.640;2022-12-07T14:53:40;101398.59;;;5.00;100.00
74103;BME280;62853;46.166;3.640;2022-12-07T14:56:07;101403.81;;;5.00;100.00
74103;BME280;62853;46.166;3.640;2022-12-07T14:58:33;101403.75;;;5.03;100.00
74103;BME280;62853;46.166;3.640;2022-12-07T15:00:59;101405.47;;;5.04;100.00
74103;BME280;62853;46.166;3.640;2022-12-07T15:03:25;101391.50;;;5.07;100.00
74103;BME280;62853;46.166;3.640;2022-12-07T15:05:50;101394.84;;;5.12;100.00